Time;durP1;ratioP1;P1;durP2;ratioP2;P2;SDS_P1;SDS_P2;PMS_P1;PMS_P2;Temp;Humidity;BMP_temperature;BMP_pressure;BME280_temperature;BME280_humidity;BME280_pressure;Samples;Min_cycle;Max_cycle;Signal;HPM_P1;HPM_P2
2023/03/02 00:01:52;;;;;;;497.60;470.48;;;4.90;99.90;;;;;;5101319;28;20404;-63
2023/03/02 00:04:55;;;;;;;490.25;463.20;;;4.90;99.90;;;;;;5100223;28;20791;-63
2023/03/02 00:07:26;;;;;;;513.50;484.92;;;4.70;99.90;;;;;;5132723;27;20376;-63
2023/03/02 00:09:52;;;;;;;501.70;473.88;;;4.60;99.90;;;;;;5119019;28;20423;-64
2023/03/02 00:12:18;;;;;;;520.75;491.40;;;4.70;99.90;;;;;;5102508;28;20526;-63
2023/03/02 00:14:44;;;;;;;535.30;504.57;;;4.70;99.90;;;;;;5101994;28;20388;-63
2023/03/02 00:17:09;;;;;;;533.20;503.10;;;4.60;99.90;;;;;;5102170;28;20524;-63
2023/03/02 00:19:35;;;;;;;521.93;492.27;;;4.50;99.90;;;;;;5102221;28;20388;-63
2023/03/02 00:22:00;;;;;;;520.00;490.65;;;4.50;99.90;;;;;;5101310;28;20779;-63
2023/03/02 00:24:26;;;;;;;523.75;494.20;;;4.50;99.90;;;;;;5099432;28;20388;-63
2023/03/02 00:26:52;;;;;;;506.47;478.40;;;4.60;99.90;;;;;;5119602;28;20874;-63
2023/03/02 00:29:17;;;;;;;495.53;468.03;;;4.70;99.90;;;;;;5119450;28;20703;-63
2023/03/02 00:31:43;;;;;;;497.60;469.63;;;4.70;99.90;;;;;;5102146;28;20391;-63
2023/03/02 00:34:08;;;;;;;526.47;496.33;;;4.60;99.90;;;;;;5099892;28;20400;-63
2023/03/02 00:36:34;;;;;;;524.40;493.93;;;4.50;99.90;;;;;;5099908;28;20399;-64
2023/03/02 00:39:00;;;;;;;522.37;492.57;;;4.50;99.90;;;;;;5116836;28;20730;-63
2023/03/02 00:41:25;;;;;;;522.50;492.47;;;4.50;99.90;;;;;;5098610;28;20540;-63
2023/03/02 00:43:51;;;;;;;531.28;500.98;;;4.50;99.90;;;;;;5099234;28;20444;-63
2023/03/02 00:46:19;;;;;;;513.03;484.33;;;4.50;99.90;;;;;;5099622;28;20799;-63
2023/03/02 00:48:45;;;;;;;511.05;481.92;;;4.40;99.90;;;;;;5098544;28;20957;-63
2023/03/02 00:51:11;;;;;;;514.38;485.15;;;4.40;99.90;;;;;;5099437;28;20388;-63
2023/03/02 00:53:37;;;;;;;512.10;482.30;;;4.40;99.90;;;;;;5099679;28;20411;-63
2023/03/02 00:56:04;;;;;;;516.50;486.55;;;4.40;99.90;;;;;;5100805;28;20400;-63
2023/03/02 00:58:30;;;;;;;517.40;487.75;;;4.50;99.90;;;;;;5118654;28;20767;-63
2023/03/02 01:00:57;;;;;;;517.22;487.55;;;4.40;99.90;;;;;;5101328;28;20372;-63
2023/03/02 01:03:23;;;;;;;521.78;492.13;;;4.40;99.90;;;;;;5100646;28;20698;-63
2023/03/02 01:05:54;;;;;;;530.65;500.25;;;4.40;99.90;;;;;;5119362;28;20388;-64
2023/03/02 01:08:20;;;;;;;534.13;503.65;;;4.40;99.90;;;;;;5101812;28;20430;-63
2023/03/02 01:10:45;;;;;;;519.63;489.98;;;4.30;99.90;;;;;;5101725;28;20380;-63
2023/03/02 01:13:11;;;;;;;530.30;499.48;;;4.30;99.90;;;;;;5118011;28;20381;-63
2023/03/02 01:15:36;;;;;;;536.13;505.40;;;4.30;99.90;;;;;;5099815;28;20675;-63
2023/03/02 01:18:02;;;;;;;543.53;512.08;;;4.30;99.90;;;;;;5099096;28;20371;-63
2023/03/02 01:20:28;;;;;;;534.38;503.60;;;4.20;99.90;;;;;;5098958;28;20427;-64
2023/03/02 01:22:54;;;;;;;532.53;501.92;;;4.20;99.90;;;;;;5098771;28;20475;-63
2023/03/02 01:25:20;;;;;;;523.85;492.83;;;4.20;99.90;;;;;;5097123;28;20373;-64
2023/03/02 01:27:46;;;;;;;531.00;500.37;;;4.20;99.90;;;;;;5098711;28;20387;-63
2023/03/02 01:30:12;;;;;;;538.63;507.33;;;4.10;99.90;;;;;;5097439;28;20456;-63
2023/03/02 01:32:37;;;;;;;529.47;498.80;;;4.10;99.90;;;;;;5097132;28;20573;-63
2023/03/02 01:35:03;;;;;;;548.73;516.97;;;4.10;99.90;;;;;;5115164;28;20430;-63
2023/03/02 01:37:29;;;;;;;529.05;497.13;;;4.10;99.90;;;;;;5096645;28;20536;-63
2023/03/02 01:39:54;;;;;;;537.88;506.38;;;4.20;99.90;;;;;;5097833;28;20802;-63
2023/03/02 01:42:20;;;;;;;533.22;502.20;;;4.30;99.90;;;;;;5116365;28;20480;-63
2023/03/02 01:44:49;;;;;;;527.10;496.43;;;4.20;99.90;;;;;;5100426;28;20384;-63
2023/03/02 01:47:23;;;;;;;544.28;512.30;;;4.30;99.90;;;;;;5119144;28;20396;-63
2023/03/02 01:50:03;;;;;;;497.08;467.33;;;4.20;99.90;;;;;;5119230;28;20392;-63
2023/03/02 01:52:32;;;;;;;484.10;455.50;;;4.20;99.90;;;;;;5120416;28;20480;-63
2023/03/02 01:55:02;;;;;;;494.27;465.48;;;4.20;99.90;;;;;;5100948;28;20385;-63
2023/03/02 01:57:33;;;;;;;473.83;446.58;;;4.20;99.90;;;;;;5116411;28;20396;-63
2023/03/02 02:00:05;;;;;;;466.23;438.63;;;4.20;99.90;;;;;;5117092;28;20470;-63
2023/03/02 02:02:31;;;;;;;451.40;425.65;;;4.20;99.90;;;;;;5098193;28;20416;-63
2023/03/02 02:04:57;;;;;;;471.73;444.10;;;4.20;99.90;;;;;;5098278;28;20496;-63
2023/03/02 02:07:23;;;;;;;461.38;434.33;;;4.20;99.90;;;;;;5097398;28;20384;-63
2023/03/02 02:09:50;;;;;;;447.20;421.17;;;4.20;99.90;;;;;;5097556;28;20601;-63
2023/03/02 02:12:18;;;;;;;455.35;428.95;;;4.30;99.90;;;;;;5097905;28;20453;-63
2023/03/02 02:14:45;;;;;;;457.25;431.50;;;4.30;99.90;;;;;;5116236;28;20389;-63
2023/03/02 02:17:11;;;;;;;464.17;437.95;;;4.30;99.90;;;;;;5098616;28;20504;-63
2023/03/02 02:20:05;;;;;;;465.67;438.77;;;4.30;99.90;;;;;;5096280;28;20471;-63
2023/03/02 02:22:45;;;;;;;482.08;454.23;;;4.30;99.90;;;;;;5097436;28;20384;-63
2023/03/02 02:25:30;;;;;;;480.05;452.27;;;4.30;99.90;;;;;;5114923;28;20767;-64
2023/03/02 02:27:56;;;;;;;474.42;447.00;;;4.20;99.90;;;;;;5098099;28;20847;-64
2023/03/02 02:30:23;;;;;;;466.17;439.17;;;4.20;99.90;;;;;;5098308;28;20472;-65
2023/03/02 02:32:51;;;;;;;486.70;458.70;;;4.10;99.90;;;;;;5116326;28;20376;-63
2023/03/02 02:35:27;;;;;;;496.30;466.93;;;4.00;99.90;;;;;;5099957;28;20383;-63
2023/03/02 02:38:04;;;;;;;484.35;456.60;;;3.90;99.90;;;;;;5117720;28;20609;-63
2023/03/02 02:40:50;;;;;;;474.53;446.83;;;3.90;99.90;;;;;;5118034;28;20604;-63
2023/03/02 02:43:19;;;;;;;429.42;402.65;;;3.70;99.90;;;;;;5118293;28;20407;-63
2023/03/02 02:45:46;;;;;;;431.98;404.88;;;3.70;99.90;;;;;;5101136;28;20606;-63
2023/03/02 02:48:24;;;;;;;433.13;405.83;;;3.80;99.90;;;;;;5098646;28;20372;-63
2023/03/02 02:50:58;;;;;;;427.23;400.50;;;3.90;99.90;;;;;;5098357;28;20384;-63
2023/03/02 02:53:46;;;;;;;444.23;416.30;;;3.80;99.90;;;;;;5097581;28;20457;-63
2023/03/02 02:56:13;;;;;;;433.08;407.00;;;3.90;99.90;;;;;;5096774;28;20733;-63
2023/03/02 02:58:52;;;;;;;422.95;397.35;;;3.90;99.90;;;;;;5097098;28;20380;-63
2023/03/02 03:01:24;;;;;;;431.52;404.92;;;3.90;99.90;;;;;;5094396;28;20403;-63
2023/03/02 03:03:55;;;;;;;441.53;414.60;;;3.90;99.90;;;;;;5095441;28;20545;-63
2023/03/02 03:06:29;;;;;;;437.92;410.33;;;3.80;99.90;;;;;;5097300;28;20415;-64
2023/03/02 03:08:57;;;;;;;458.27;428.52;;;3.70;99.90;;;;;;5115659;28;20553;-63
2023/03/02 03:11:26;;;;;;;439.48;410.92;;;3.70;99.90;;;;;;5096491;28;20389;-63
2023/03/02 03:14:12;;;;;;;435.48;407.42;;;3.70;99.90;;;;;;5097403;28;20369;-63
2023/03/02 03:16:40;;;;;;;435.52;407.58;;;3.70;99.90;;;;;;5095124;28;20671;-63
2023/03/02 03:19:12;;;;;;;439.13;411.05;;;3.70;99.90;;;;;;5096860;28;20410;-64
2023/03/02 03:21:37;;;;;;;446.13;417.38;;;3.70;99.90;;;;;;5095814;28;20393;-63
2023/03/02 03:24:03;;;;;;;462.00;431.95;;;3.60;99.90;;;;;;5095997;28;20391;-63
2023/03/02 03:26:29;;;;;;;451.85;422.83;;;3.70;99.90;;;;;;5094589;28;20404;-63
2023/03/02 03:28:56;;;;;;;424.10;397.38;;;3.80;99.90;;;;;;5094022;28;20754;-63
2023/03/02 03:31:23;;;;;;;423.52;396.00;;;3.70;99.90;;;;;;5093418;28;20677;-63
2023/03/02 03:33:48;;;;;;;455.48;426.00;;;3.70;99.90;;;;;;5095137;28;20390;-63
2023/03/02 03:36:14;;;;;;;431.55;403.33;;;3.60;99.90;;;;;;5092801;28;20655;-63
2023/03/02 03:38:40;;;;;;;463.42;434.40;;;3.60;99.90;;;;;;5094565;28;20754;-63
2023/03/02 03:41:05;;;;;;;454.77;426.37;;;3.60;99.90;;;;;;5095809;28;20389;-63
2023/03/02 03:43:31;;;;;;;505.87;473.20;;;3.60;99.90;;;;;;5095741;28;20389;-64
2023/03/02 03:45:56;;;;;;;482.27;451.40;;;3.60;99.90;;;;;;5095979;28;20382;-63
2023/03/02 03:48:22;;;;;;;458.63;429.30;;;3.60;99.90;;;;;;5093834;28;20378;-63
2023/03/02 03:50:48;;;;;;;434.98;406.80;;;3.60;99.90;;;;;;5094108;28;20385;-64
2023/03/02 03:53:13;;;;;;;451.77;423.23;;;3.50;99.90;;;;;;5094425;28;20393;-63
2023/03/02 03:55:39;;;;;;;486.10;455.10;;;3.50;99.90;;;;;;5093544;28;20541;-63
2023/03/02 03:58:04;;;;;;;458.42;429.55;;;3.50;99.90;;;;;;5093314;28;20378;-63
2023/03/02 04:00:30;;;;;;;470.17;440.67;;;3.50;99.90;;;;;;5093922;28;20397;-64
2023/03/02 04:02:55;;;;;;;480.47;449.30;;;3.50;99.90;;;;;;5094909;28;20378;-63
2023/03/02 04:05:21;;;;;;;487.40;456.83;;;3.50;99.90;;;;;;5096835;28;20908;-63
2023/03/02 04:07:47;;;;;;;437.02;410.10;;;3.60;99.90;;;;;;5097175;28;20406;-62
2023/03/02 04:10:12;;;;;;;455.92;427.50;;;3.60;99.90;;;;;;5095138;28;20396;-63
2023/03/02 04:12:39;;;;;;;473.47;443.40;;;3.60;99.90;;;;;;5095394;28;20393;-63
2023/03/02 04:15:11;;;;;;;465.15;435.92;;;3.60;99.90;;;;;;5094199;28;20481;-63
2023/03/02 04:17:36;;;;;;;461.60;432.30;;;3.60;99.90;;;;;;5093666;28;20414;-63
2023/03/02 04:20:05;;;;;;;470.33;440.83;;;3.60;99.90;;;;;;5110931;28;20382;-63
2023/03/02 04:22:31;;;;;;;452.65;423.95;;;3.60;99.90;;;;;;5096226;28;20382;-64
2023/03/02 04:24:56;;;;;;;437.00;409.35;;;3.50;99.90;;;;;;5097626;28;20389;-65
2023/03/02 04:27:22;;;;;;;439.60;411.30;;;3.50;99.90;;;;;;5098693;28;20459;-63
2023/03/02 04:29:47;;;;;;;460.87;431.30;;;3.50;99.90;;;;;;5096219;28;20386;-64
2023/03/02 04:32:16;;;;;;;456.77;427.33;;;3.50;99.90;;;;;;5097523;28;20413;-64
2023/03/02 04:34:41;;;;;;;470.73;440.30;;;3.50;99.90;;;;;;5097914;28;20390;-64
2023/03/02 04:37:07;;;;;;;462.60;432.87;;;3.50;99.90;;;;;;5097362;28;20651;-63
2023/03/02 04:39:32;;;;;;;449.00;420.20;;;3.40;99.90;;;;;;5095207;28;20460;-63
2023/03/02 04:41:58;;;;;;;467.95;437.48;;;3.40;99.90;;;;;;5096654;28;20378;-64
2023/03/02 04:44:23;;;;;;;485.80;454.30;;;3.30;99.90;;;;;;5097686;28;20386;-64
2023/03/02 04:46:49;;;;;;;495.67;463.73;;;3.40;99.90;;;;;;5097866;28;20405;-63
2023/03/02 04:49:16;;;;;;;498.80;466.60;;;3.40;99.90;;;;;;5099532;28;20392;-64
2023/03/02 04:51:44;;;;;;;502.67;471.20;;;3.40;99.90;;;;;;5098385;28;20385;-63
2023/03/02 04:54:15;;;;;;;525.57;491.67;;;3.40;99.90;;;;;;5097568;28;20400;-64
2023/03/02 04:56:41;;;;;;;505.75;473.58;;;3.40;99.90;;;;;;5099587;28;20429;-65
2023/03/02 04:59:09;;;;;;;511.37;479.07;;;3.40;99.90;;;;;;5098292;28;20415;-65
2023/03/02 05:01:34;;;;;;;501.60;469.70;;;3.40;99.90;;;;;;5096507;28;20781;-64
2023/03/02 05:04:00;;;;;;;498.20;466.30;;;3.40;99.90;;;;;;5113089;28;20397;-65
2023/03/02 05:06:25;;;;;;;497.23;465.30;;;3.30;99.90;;;;;;5095886;28;20401;-65
2023/03/02 05:08:51;;;;;;;533.03;498.80;;;3.20;99.90;;;;;;5094714;28;20390;-65
2023/03/02 05:11:21;;;;;;;509.20;476.50;;;3.20;99.90;;;;;;5091896;28;20812;-64
2023/03/02 05:13:52;;;;;;;485.67;454.25;;;3.20;99.90;;;;;;5090522;28;20389;-64
2023/03/02 05:16:17;;;;;;;474.23;443.63;;;3.30;99.90;;;;;;5089465;28;20704;-64
2023/03/02 05:18:43;;;;;;;474.87;444.53;;;3.20;99.90;;;;;;5090061;28;20818;-64
2023/03/02 05:21:09;;;;;;;483.63;452.47;;;3.20;99.90;;;;;;5088691;28;20515;-64
2023/03/02 05:23:35;;;;;;;484.48;453.08;;;3.20;99.90;;;;;;5089416;28;20680;-64
2023/03/02 05:26:00;;;;;;;481.47;450.23;;;3.20;99.90;;;;;;5091331;28;20658;-65
2023/03/02 05:28:26;;;;;;;448.05;418.10;;;3.10;99.90;;;;;;5092028;28;20514;-64
2023/03/02 05:30:52;;;;;;;454.38;423.83;;;3.10;99.90;;;;;;5093687;28;20382;-64
2023/03/02 05:33:18;;;;;;;462.00;431.52;;;3.00;99.90;;;;;;5094246;28;20540;-64
2023/03/02 05:35:44;;;;;;;405.65;378.95;;;3.00;99.90;;;;;;5094687;28;20481;-64
2023/03/02 05:38:10;;;;;;;418.48;390.83;;;3.00;99.90;;;;;;5096303;28;20390;-63
2023/03/02 05:40:37;;;;;;;438.63;410.70;;;3.10;99.90;;;;;;5095746;28;20382;-63
2023/03/02 05:43:02;;;;;;;430.00;402.60;;;3.20;99.90;;;;;;5094719;28;20385;-63
2023/03/02 05:45:32;;;;;;;440.02;411.33;;;3.10;99.90;;;;;;5092412;28;20378;-63
2023/03/02 05:47:57;;;;;;;417.77;390.73;;;3.10;99.90;;;;;;5090930;28;20374;-63
2023/03/02 05:50:23;;;;;;;453.30;424.63;;;3.10;99.90;;;;;;5088421;28;20409;-63
2023/03/02 05:52:49;;;;;;;392.40;368.07;;;3.00;99.90;;;;;;5087589;28;20935;-63
2023/03/02 05:55:16;;;;;;;368.57;347.50;;;2.90;99.90;;;;;;5087299;28;20641;-63
2023/03/02 05:57:42;;;;;;;333.48;315.02;;;3.00;99.90;;;;;;5085613;28;20420;-63
2023/03/02 06:00:09;;;;;;;319.95;302.30;;;3.00;99.90;;;;;;5086844;28;20381;-64
2023/03/02 06:02:38;;;;;;;327.58;309.30;;;3.10;99.90;;;;;;5085223;28;20405;-63
2023/03/02 06:05:05;;;;;;;317.58;298.98;;;3.10;99.90;;;;;;5085667;28;20552;-63
2023/03/02 06:07:30;;;;;;;337.25;317.73;;;3.20;99.90;;;;;;5085075;28;20497;-64
2023/03/02 06:09:56;;;;;;;334.17;314.88;;;3.20;99.90;;;;;;5087862;28;20526;-63
2023/03/02 06:12:22;;;;;;;341.25;321.50;;;3.20;99.90;;;;;;5086847;28;20809;-63
2023/03/02 06:14:47;;;;;;;332.73;313.50;;;3.20;99.90;;;;;;5088526;28;21042;-64
2023/03/02 06:17:13;;;;;;;321.97;303.47;;;3.30;99.90;;;;;;5087729;28;20499;-64
2023/03/02 06:19:38;;;;;;;332.30;313.07;;;3.30;99.90;;;;;;5089312;28;20621;-64
2023/03/02 06:22:04;;;;;;;328.75;309.25;;;3.20;99.90;;;;;;5090984;28;20473;-63
2023/03/02 06:24:29;;;;;;;335.37;315.37;;;3.20;99.90;;;;;;5088668;28;20467;-63
2023/03/02 06:26:55;;;;;;;341.97;321.73;;;3.20;99.90;;;;;;5088593;28;20385;-64
2023/03/02 06:29:21;;;;;;;347.17;326.83;;;3.10;99.90;;;;;;5087880;28;20752;-64
2023/03/02 06:31:47;;;;;;;344.10;323.87;;;3.20;99.90;;;;;;5088379;28;20946;-63
2023/03/02 06:34:13;;;;;;;352.00;331.03;;;3.20;99.90;;;;;;5087698;28;20604;-64
2023/03/02 06:36:38;;;;;;;340.60;320.03;;;3.20;99.90;;;;;;5087783;28;20402;-63
2023/03/02 06:39:05;;;;;;;348.02;326.80;;;3.10;99.90;;;;;;5086431;28;20472;-63
2023/03/02 06:41:32;;;;;;;356.48;335.20;;;3.10;99.90;;;;;;5083857;28;20374;-63
2023/03/02 06:44:01;;;;;;;360.85;339.10;;;3.10;99.90;;;;;;5087049;28;20413;-64
2023/03/02 06:46:27;;;;;;;356.13;334.52;;;3.20;99.90;;;;;;5084235;28;20390;-63
2023/03/02 06:48:52;;;;;;;340.80;320.20;;;3.10;99.90;;;;;;5085248;28;20394;-63
2023/03/02 06:51:18;;;;;;;358.45;336.77;;;3.10;99.90;;;;;;5086053;28;20860;-63
2023/03/02 06:53:44;;;;;;;349.73;328.33;;;3.10;99.90;;;;;;5086961;28;20621;-63
2023/03/02 06:56:09;;;;;;;353.63;332.27;;;3.10;99.90;;;;;;5085243;28;20489;-63
2023/03/02 06:58:36;;;;;;;343.13;322.23;;;3.10;99.90;;;;;;5083618;28;20473;-63
2023/03/02 07:01:02;;;;;;;347.02;325.65;;;3.00;99.90;;;;;;5083054;28;20393;-64
2023/03/02 07:03:28;;;;;;;348.58;327.25;;;3.00;99.90;;;;;;5082258;28;20381;-64
2023/03/02 07:05:53;;;;;;;340.67;320.00;;;2.90;99.90;;;;;;5080981;28;20594;-64
2023/03/02 07:08:19;;;;;;;328.63;308.90;;;2.90;99.90;;;;;;5081771;28;20621;-64
2023/03/02 07:10:44;;;;;;;341.13;320.00;;;2.90;99.90;;;;;;5083249;28;20397;-65
2023/03/02 07:13:10;;;;;;;373.47;349.43;;;2.90;99.90;;;;;;5083361;28;20597;-64
2023/03/02 07:15:38;;;;;;;355.83;332.97;;;3.00;99.90;;;;;;5084467;28;20390;-64
2023/03/02 07:18:04;;;;;;;376.83;352.20;;;3.00;99.90;;;;;;5086698;28;20782;-65
2023/03/02 07:20:29;;;;;;;378.77;353.52;;;3.00;99.90;;;;;;5104169;28;20670;-64
2023/03/02 07:22:55;;;;;;;366.23;342.13;;;3.00;99.90;;;;;;5086391;28;20641;-64
2023/03/02 07:25:21;;;;;;;377.38;352.45;;;3.00;99.90;;;;;;5088039;28;20765;-64
2023/03/02 07:27:47;;;;;;;381.00;355.80;;;3.10;99.90;;;;;;5088972;28;20395;-64
2023/03/02 07:30:14;;;;;;;378.67;353.67;;;3.10;99.90;;;;;;5090534;28;20826;-65
2023/03/02 07:32:40;;;;;;;381.15;355.88;;;3.10;99.90;;;;;;5094011;28;20964;-65
2023/03/02 07:35:05;;;;;;;403.08;375.38;;;3.00;99.90;;;;;;5091820;28;20810;-64
2023/03/02 07:37:31;;;;;;;390.73;363.87;;;3.10;99.90;;;;;;5091877;28;20682;-64
2023/03/02 07:39:56;;;;;;;376.63;351.47;;;3.00;99.90;;;;;;5090599;28;20547;-64
2023/03/02 07:42:22;;;;;;;413.17;384.23;;;3.00;99.90;;;;;;5089746;28;20384;-64
2023/03/02 07:44:48;;;;;;;433.85;403.52;;;3.00;99.90;;;;;;5086524;28;20381;-65
2023/03/02 07:47:13;;;;;;;493.10;456.70;;;3.00;99.90;;;;;;5089096;28;20648;-64
2023/03/02 07:49:39;;;;;;;497.67;459.87;;;3.00;99.90;;;;;;5088301;28;20522;-64
2023/03/02 07:52:05;;;;;;;496.73;459.58;;;3.00;99.90;;;;;;5086470;28;20795;-64
2023/03/02 07:54:30;;;;;;;473.65;437.90;;;3.00;99.90;;;;;;5086279;28;20404;-64
2023/03/02 07:56:57;;;;;;;477.15;441.35;;;3.00;99.90;;;;;;5087255;28;20396;-65
2023/03/02 07:59:23;;;;;;;482.77;447.25;;;3.00;99.90;;;;;;5090053;28;20381;-64
2023/03/02 08:01:49;;;;;;;487.33;449.63;;;3.00;99.90;;;;;;5087531;28;20399;-65
2023/03/02 08:04:14;;;;;;;447.23;414.97;;;3.00;99.90;;;;;;5087889;28;20679;-64
2023/03/02 08:06:40;;;;;;;436.30;404.33;;;3.00;99.90;;;;;;5086774;28;20576;-64
2023/03/02 08:09:06;;;;;;;463.80;429.98;;;3.00;99.90;;;;;;5104048;28;20410;-64
2023/03/02 08:11:31;;;;;;;467.38;433.02;;;3.00;99.90;;;;;;5103737;28;20893;-64
2023/03/02 08:14:01;;;;;;;508.88;471.42;;;3.00;99.90;;;;;;5086050;28;20384;-64
2023/03/02 08:16:27;;;;;;;514.03;475.55;;;3.00;99.90;;;;;;5103407;28;20435;-64
2023/03/02 08:18:55;;;;;;;503.08;466.60;;;3.00;99.90;;;;;;5083812;28;20923;-64
2023/03/02 08:21:22;;;;;;;513.05;475.17;;;3.00;99.90;;;;;;5085554;28;20373;-65
2023/03/02 08:23:49;;;;;;;499.60;462.03;;;3.00;99.90;;;;;;5087306;28;20499;-64
2023/03/02 08:26:19;;;;;;;547.53;507.02;;;3.00;99.90;;;;;;5088451;28;20380;-64
2023/03/02 08:28:45;;;;;;;521.13;483.08;;;3.10;99.90;;;;;;5089713;28;20388;-64
2023/03/02 08:31:12;;;;;;;559.63;516.15;;;3.00;99.90;;;;;;5091919;28;20452;-64
2023/03/02 08:33:38;;;;;;;555.35;512.83;;;3.10;99.90;;;;;;5109903;28;20463;-64
2023/03/02 08:36:06;;;;;;;523.75;484.17;;;3.10;99.90;;;;;;5090056;28;20522;-64
2023/03/02 08:38:34;;;;;;;521.70;482.15;;;3.10;99.90;;;;;;5107816;28;20384;-64
2023/03/02 08:41:06;;;;;;;549.22;507.30;;;3.20;99.90;;;;;;5089917;28;21490;-64
2023/03/02 08:43:32;;;;;;;547.58;506.25;;;3.20;99.90;;;;;;5091068;28;20388;-64
2023/03/02 08:45:58;;;;;;;523.72;484.38;;;3.30;99.90;;;;;;5088200;28;20679;-64
2023/03/02 08:48:25;;;;;;;501.87;464.17;;;3.30;99.90;;;;;;5082778;28;20790;-64
2023/03/02 08:51:00;;;;;;;514.35;475.58;;;3.30;99.90;;;;;;5102939;28;20482;-64
2023/03/02 08:53:27;;;;;;;526.50;487.30;;;3.30;99.90;;;;;;5086193;28;20391;-64
2023/03/02 08:55:52;;;;;;;544.67;503.98;;;3.40;99.90;;;;;;5087291;28;20491;-64
2023/03/02 08:58:18;;;;;;;480.23;444.43;;;3.40;99.90;;;;;;5088372;28;20491;-64
2023/03/02 09:00:44;;;;;;;478.98;443.77;;;3.30;99.90;;;;;;5087698;28;20388;-64
2023/03/02 09:03:10;;;;;;;512.97;474.30;;;3.40;99.90;;;;;;5107229;28;20383;-64
2023/03/02 09:05:35;;;;;;;530.45;489.65;;;3.30;99.90;;;;;;5089585;28;20795;-65
2023/03/02 09:08:02;;;;;;;534.53;493.25;;;3.30;99.90;;;;;;5090541;28;20412;-64
2023/03/02 09:10:28;;;;;;;522.27;482.87;;;3.30;99.90;;;;;;5088826;28;20816;-64
2023/03/02 09:12:53;;;;;;;523.93;484.10;;;3.30;99.90;;;;;;5107400;28;20637;-65
2023/03/02 09:15:19;;;;;;;541.47;498.93;;;3.40;99.90;;;;;;5089710;28;20398;-64
2023/03/02 09:17:44;;;;;;;523.95;483.90;;;3.40;99.90;;;;;;5081482;28;21018;-64
2023/03/02 09:20:10;;;;;;;485.90;449.10;;;3.40;99.90;;;;;;5080617;28;20598;-64
2023/03/02 09:22:36;;;;;;;495.30;457.93;;;3.40;99.90;;;;;;5079126;28;20804;-64
2023/03/02 09:25:05;;;;;;;478.87;443.30;;;3.40;99.90;;;;;;5084413;28;20378;-64
2023/03/02 09:27:31;;;;;;;503.73;465.90;;;3.50;99.90;;;;;;5085665;28;20393;-64
2023/03/02 09:29:56;;;;;;;482.77;446.52;;;3.50;99.90;;;;;;5087006;28;20459;-64
2023/03/02 09:32:22;;;;;;;505.97;467.20;;;3.50;99.90;;;;;;5087723;28;21266;-64
2023/03/02 09:34:48;;;;;;;480.53;444.17;;;3.60;99.90;;;;;;5089673;28;20386;-65
2023/03/02 09:37:13;;;;;;;510.23;471.90;;;3.50;99.90;;;;;;5092566;28;20658;-64
2023/03/02 09:39:39;;;;;;;483.07;447.87;;;3.50;99.90;;;;;;5091899;28;20393;-65
2023/03/02 09:42:13;;;;;;;464.63;432.23;;;3.50;99.90;;;;;;5091725;28;20398;-64
2023/03/02 09:45:00;;;;;;;463.50;432.17;;;3.50;99.90;;;;;;5095182;28;20384;-64
2023/03/02 09:47:43;;;;;;;474.63;441.58;;;3.50;99.90;;;;;;5093404;28;20422;-64
2023/03/02 09:50:36;;;;;;;450.42;420.73;;;3.60;99.90;;;;;;5092726;28;20519;-64
2023/03/02 09:53:26;;;;;;;447.73;418.77;;;3.60;99.90;;;;;;5094483;28;20481;-64
2023/03/02 09:56:01;;;;;;;457.33;427.05;;;3.60;99.90;;;;;;5094558;28;20402;-64
2023/03/02 09:58:35;;;;;;;465.38;434.67;;;3.60;99.90;;;;;;5092618;28;20470;-64
2023/03/02 10:01:04;;;;;;;460.88;430.67;;;3.60;99.90;;;;;;5091566;28;20379;-64
2023/03/02 10:03:46;;;;;;;439.63;411.10;;;3.60;99.90;;;;;;5092729;28;20438;-65
2023/03/02 10:06:12;;;;;;;452.05;422.80;;;3.60;99.90;;;;;;5087539;28;20498;-65
2023/03/02 10:08:39;;;;;;;449.38;420.20;;;3.70;99.90;;;;;;5069504;28;20474;-65
2023/03/02 10:11:25;;;;;;;461.40;431.30;;;3.70;99.90;;;;;;5067348;28;20694;-64
2023/03/02 10:13:59;;;;;;;514.50;481.15;;;3.80;99.90;;;;;;5068108;28;20828;-64
2023/03/02 10:16:48;;;;;;;507.63;474.73;;;3.70;99.90;;;;;;5066411;28;20542;-64
2023/03/02 10:19:23;;;;;;;535.88;501.00;;;3.80;99.90;;;;;;5066044;28;20506;-64
2023/03/02 10:21:57;;;;;;;580.53;542.53;;;3.80;99.90;;;;;;5065510;28;20419;-64
2023/03/02 10:24:47;;;;;;;578.35;540.63;;;3.90;99.90;;;;;;5064503;28;20416;-64
2023/03/02 10:27:38;;;;;;;592.47;553.08;;;3.90;99.90;;;;;;5065461;28;20395;-64
2023/03/02 10:30:29;;;;;;;629.22;586.63;;;4.00;99.90;;;;;;5059988;28;20399;-64
2023/03/02 10:32:59;;;;;;;611.67;569.05;;;4.00;99.90;;;;;;5053893;28;20560;-65
2023/03/02 10:35:27;;;;;;;605.70;563.47;;;4.10;99.90;;;;;;5058413;28;20394;-64
2023/03/02 10:38:03;;;;;;;566.88;525.92;;;4.10;99.90;;;;;;5060156;28;20599;-64
2023/03/02 10:40:45;;;;;;;578.78;536.08;;;4.10;99.90;;;;;;5067086;28;20472;-64
2023/03/02 10:43:43;;;;;;;594.73;551.60;;;4.10;99.90;;;;;;5067989;28;20380;-64
2023/03/02 10:46:10;;;;;;;599.60;556.03;;;4.10;99.90;;;;;;5071114;28;20380;-65
2023/03/02 10:48:46;;;;;;;595.83;552.63;;;4.00;99.90;;;;;;5071985;28;20675;-64
2023/03/02 10:51:30;;;;;;;573.67;532.63;;;3.90;99.90;;;;;;5071457;28;20892;-64
2023/03/02 10:54:11;;;;;;;608.33;563.75;;;3.90;99.90;;;;;;5069179;28;20684;-64
2023/03/02 10:56:37;;;;;;;618.38;576.40;;;4.00;99.90;;;;;;5067932;28;20486;-64
2023/03/02 10:59:30;;;;;;;611.10;568.17;;;4.00;99.90;;;;;;5066857;28;20380;-64
2023/03/02 11:02:11;;;;;;;595.03;555.60;;;4.00;99.90;;;;;;5063889;28;20913;-64
2023/03/02 11:04:37;;;;;;;568.57;531.40;;;4.00;99.90;;;;;;5059633;28;20545;-64
2023/03/02 11:07:17;;;;;;;549.33;514.17;;;4.00;99.90;;;;;;5058593;28;20391;-60
2023/03/02 11:09:55;;;;;;;427.25;399.55;;;3.90;99.90;;;;;;5061042;28;20384;-62
2023/03/02 11:12:23;;;;;;;399.55;372.52;;;3.80;99.90;;;;;;5059766;28;20383;-62
2023/03/02 11:14:59;;;;;;;500.85;460.50;;;3.80;99.90;;;;;;5059632;28;20854;-60
2023/03/02 11:17:36;;;;;;;523.80;481.90;;;3.80;99.90;;;;;;5061634;28;20412;-64
2023/03/02 11:20:03;;;;;;;530.47;489.00;;;3.90;99.90;;;;;;5064777;28;20388;-64
2023/03/02 11:23:09;;;;;;;506.05;466.92;;;3.90;99.90;;;;;;5066521;28;20679;-64
2023/03/02 11:25:39;;;;;;;546.17;504.03;;;4.00;99.90;;;;;;5067439;28;20826;-64
2023/03/02 11:28:30;;;;;;;492.52;457.13;;;4.00;99.90;;;;;;5067790;28;20376;-64
2023/03/02 11:30:58;;;;;;;495.48;460.23;;;4.10;99.90;;;;;;5067267;28;20666;-64
2023/03/02 11:33:35;;;;;;;485.48;451.60;;;4.10;99.90;;;;;;5068242;28;20947;-64
2023/03/02 11:36:28;;;;;;;454.42;424.30;;;4.20;99.90;;;;;;5070326;28;20450;-64
2023/03/02 11:38:54;;;;;;;473.05;442.17;;;4.20;99.90;;;;;;5070238;28;20710;-64
2023/03/02 11:41:33;;;;;;;467.65;437.80;;;4.20;99.90;;;;;;5069744;28;20589;-66
2023/03/02 11:44:19;;;;;;;503.50;470.50;;;4.20;99.90;;;;;;5067519;28;20517;-65
2023/03/02 11:46:49;;;;;;;519.15;484.33;;;4.30;99.90;;;;;;5066361;28;20395;-65
2023/03/02 11:49:35;;;;;;;535.95;501.35;;;4.20;99.90;;;;;;5067832;28;20640;-64
2023/03/02 11:52:01;;;;;;;472.45;441.90;;;4.20;99.90;;;;;;5065620;28;20380;-64
2023/03/02 11:55:02;;;;;;;505.85;473.35;;;4.20;99.90;;;;;;5065069;28;20398;-64
2023/03/02 11:57:39;;;;;;;508.42;476.20;;;4.20;99.90;;;;;;5061521;28;20403;-64
2023/03/02 12:00:15;;;;;;;528.13;494.63;;;4.30;99.90;;;;;;5065564;28;20391;-64
2023/03/02 12:02:40;;;;;;;559.17;523.28;;;4.30;99.90;;;;;;5067048;28;20791;-64
2023/03/02 12:05:25;;;;;;;543.15;508.05;;;4.40;99.90;;;;;;5067608;28;20394;-64
2023/03/02 12:07:59;;;;;;;553.85;518.03;;;4.40;99.90;;;;;;5069572;28;20396;-64
2023/03/02 12:10:32;;;;;;;580.20;540.92;;;4.40;99.90;;;;;;5068393;28;20506;-64
2023/03/02 12:13:28;;;;;;;583.97;542.83;;;4.40;99.90;;;;;;5069780;28;20461;-64
2023/03/02 12:15:55;;;;;;;533.08;496.67;;;4.40;99.90;;;;;;5072177;28;21055;-64
2023/03/02 12:18:20;;;;;;;515.35;480.13;;;4.50;99.90;;;;;;5069048;28;20485;-63
2023/03/02 12:20:58;;;;;;;524.87;487.53;;;4.50;99.90;;;;;;5085688;28;20705;-64
2023/03/02 12:23:24;;;;;;;505.20;469.95;;;4.50;99.90;;;;;;5067402;28;20390;-64
2023/03/02 12:26:03;;;;;;;518.27;482.57;;;4.50;99.90;;;;;;5064094;28;20486;-64
2023/03/02 12:28:38;;;;;;;490.73;457.23;;;4.60;99.90;;;;;;5083656;28;20459;-62
2023/03/02 12:31:08;;;;;;;519.53;482.20;;;4.60;99.90;;;;;;5063585;28;20472;-64